createdAt,value
2018-07-27T00:03:36.299Z,4.20
2018-07-27T00:07:40.191Z,4.40
2018-07-27T00:11:44.030Z,4.07
2018-07-27T00:15:47.915Z,4.10
2018-07-27T00:19:51.767Z,4.37
2018-07-27T00:23:55.671Z,3.60
2018-07-27T00:27:59.511Z,4.10
2018-07-27T00:32:03.400Z,4.03
2018-07-27T00:36:07.231Z,3.83
2018-07-27T00:40:11.112Z,3.93
2018-07-27T00:44:14.935Z,4.10
2018-07-27T00:48:18.795Z,3.80
2018-07-27T00:52:22.627Z,4.30
2018-07-27T00:56:26.515Z,5.47
2018-07-27T01:00:30.396Z,4.70
2018-07-27T01:04:34.275Z,4.97
2018-07-27T01:08:38.101Z,4.80
2018-07-27T01:12:41.987Z,5.00
2018-07-27T01:16:45.816Z,4.50
2018-07-27T01:20:49.711Z,4.70
2018-07-27T01:24:53.539Z,5.30
2018-07-27T01:28:57.471Z,6.70
2018-07-27T01:33:01.303Z,4.13
2018-07-27T01:37:05.240Z,5.50
2018-07-27T01:41:09.072Z,6.37
2018-07-27T01:45:12.936Z,5.40
2018-07-27T01:49:16.778Z,5.33
2018-07-27T01:53:20.723Z,6.17
2018-07-27T01:57:24.567Z,5.07
2018-07-27T02:01:28.620Z,6.00
2018-07-27T02:05:32.447Z,6.10
2018-07-27T02:09:36.427Z,6.73
2018-07-27T02:13:40.267Z,5.23
2018-07-27T02:17:43.923Z,5.63
2018-07-27T02:21:47.632Z,5.50
2018-07-27T02:25:51.544Z,5.70
2018-07-27T02:29:55.380Z,5.83
2018-07-27T02:33:59.359Z,6.40
2018-07-27T02:38:03.180Z,5.50
2018-07-27T02:42:07.122Z,5.23
2018-07-27T02:46:10.980Z,5.83
2018-07-27T02:50:14.884Z,5.13
2018-07-27T02:54:18.712Z,5.30
2018-07-27T02:58:22.599Z,6.33
2018-07-27T03:02:26.484Z,6.30
2018-07-27T03:06:30.397Z,6.37
2018-07-27T03:10:34.286Z,6.30
2018-07-27T03:14:38.182Z,6.77
2018-07-27T03:18:42.017Z,6.17
2018-07-27T03:22:45.963Z,6.50
2018-07-27T03:26:49.804Z,6.10
2018-07-27T03:30:53.764Z,6.40
2018-07-27T03:34:57.600Z,6.80
2018-07-27T03:39:01.464Z,7.27
2018-07-27T03:43:05.291Z,6.23
2018-07-27T03:47:09.176Z,6.37
2018-07-27T03:51:12.996Z,5.30
2018-07-27T03:55:16.847Z,7.83
2018-07-27T03:59:20.675Z,6.13
2018-07-27T04:03:24.691Z,6.90
2018-07-27T04:07:28.515Z,6.13
2018-07-27T04:11:32.483Z,6.63
2018-07-27T04:15:36.312Z,5.73
2018-07-27T04:19:40.313Z,5.90
2018-07-27T04:23:44.112Z,6.30
2018-07-27T04:27:48.100Z,7.27
2018-07-27T04:31:51.960Z,6.03
2018-07-27T04:35:55.815Z,6.70
2018-07-27T04:39:59.654Z,6.73
2018-07-27T04:44:03.538Z,5.53
2018-07-27T04:48:07.368Z,6.60
2018-07-27T04:52:11.261Z,6.40
2018-07-27T04:56:15.150Z,7.17
2018-07-27T05:00:19.075Z,7.07
2018-07-27T05:04:22.955Z,6.97
2018-07-27T05:08:26.821Z,5.90
2018-07-27T05:12:30.695Z,7.17
2018-07-27T05:16:34.588Z,6.10
2018-07-27T05:20:38.435Z,6.70
2018-07-27T05:24:42.168Z,6.37
2018-07-27T05:28:45.820Z,6.80
2018-07-27T05:32:49.700Z,5.67
2018-07-27T05:36:53.532Z,6.20
2018-07-27T05:40:57.543Z,6.27
2018-07-27T05:45:01.175Z,6.03
2018-07-27T05:49:04.956Z,5.70
2018-07-27T05:53:08.788Z,5.70
2018-07-27T05:57:13.420Z,6.10
2018-07-27T06:01:17.360Z,5.53
2018-07-27T06:05:21.520Z,5.93
2018-07-27T06:09:25.471Z,6.17
2018-07-27T06:13:29.581Z,6.17
2018-07-27T06:17:33.371Z,5.20
2018-07-27T06:21:37.020Z,5.43
2018-07-27T06:25:40.563Z,6.20
2018-07-27T06:29:44.552Z,6.40
2018-07-27T06:33:48.452Z,7.03
2018-07-27T06:37:52.365Z,6.10
2018-07-27T06:41:56.211Z,6.13
2018-07-27T06:46:00.176Z,5.60
2018-07-27T06:50:04.420Z,6.57
2018-07-27T06:54:08.315Z,6.50
2018-07-27T06:58:12.155Z,6.80
2018-07-27T07:02:16.119Z,6.30
2018-07-27T07:06:20.055Z,5.87
2018-07-27T07:10:23.963Z,6.47
2018-07-27T07:14:27.592Z,6.50
2018-07-27T07:18:31.331Z,6.57
2018-07-27T07:22:34.964Z,5.63
2018-07-27T07:26:38.571Z,6.80
2018-07-27T07:30:42.063Z,6.20
2018-07-27T07:34:45.591Z,6.90
2018-07-27T07:38:49.343Z,6.17
2018-07-27T07:42:53.220Z,6.33
2018-07-27T07:46:56.851Z,6.40
2018-07-27T07:51:00.613Z,5.60
2018-07-27T07:55:04.447Z,6.10
2018-07-27T07:59:08.297Z,5.80
2018-07-27T08:03:11.920Z,5.90
2018-07-27T08:07:15.887Z,5.93
2018-07-27T08:11:19.531Z,6.50
2018-07-27T08:15:23.259Z,6.73
2018-07-27T08:19:27.355Z,6.33
2018-07-27T08:23:31.239Z,6.37
2018-07-27T08:27:35.065Z,6.10
2018-07-27T08:31:39.887Z,6.50
2018-07-27T08:35:43.439Z,5.13
2018-07-27T08:39:47.309Z,6.23
2018-07-27T08:43:51.068Z,5.90
2018-07-27T08:47:54.968Z,6.10
2018-07-27T08:51:58.800Z,6.00
2018-07-27T08:56:02.735Z,6.43
2018-07-27T09:00:06.579Z,6.07
2018-07-27T09:04:10.452Z,5.57
2018-07-27T09:08:14.163Z,5.60
2018-07-27T09:12:17.912Z,5.33
2018-07-27T09:16:22.075Z,6.47
2018-07-27T09:20:25.963Z,5.43
2018-07-27T09:24:29.957Z,5.33
2018-07-27T09:28:34.000Z,5.50
2018-07-27T09:32:37.632Z,5.37
2018-07-27T09:36:41.519Z,4.80
2018-07-27T09:40:45.487Z,4.60
2018-07-27T11:39:45.535Z,4.20
2018-07-27T11:43:49.099Z,3.93
2018-07-27T11:47:52.843Z,4.40
2018-07-27T11:51:56.704Z,4.83
2018-07-27T11:56:00.447Z,3.40
2018-07-27T12:00:04.408Z,4.10
2018-07-27T12:04:07.963Z,4.30
2018-07-27T12:08:11.489Z,3.40
2018-07-27T12:12:15.122Z,3.20
2018-07-27T12:16:18.629Z,4.03
2018-07-27T12:20:22.456Z,3.80
2018-07-27T12:24:26.063Z,4.00
2018-07-27T12:28:29.601Z,3.80
2018-07-27T12:32:33.101Z,3.73
2018-07-27T12:36:36.871Z,3.30
2018-07-27T12:40:40.679Z,3.80
2018-07-27T12:44:44.307Z,4.23
2018-07-27T12:48:47.887Z,4.50
2018-07-27T12:52:51.491Z,3.90
2018-07-27T12:56:55.423Z,3.50
2018-07-27T13:00:58.999Z,2.90
2018-07-27T13:05:02.543Z,3.90
2018-07-27T13:09:07.552Z,3.53
2018-07-27T13:13:11.220Z,3.23
2018-07-27T13:17:15.029Z,3.40
2018-07-27T13:21:18.743Z,3.10
2018-07-27T13:25:22.308Z,3.27
2018-07-27T13:29:25.856Z,3.23
2018-07-27T13:33:29.832Z,3.40
2018-07-27T13:37:34.405Z,3.90
2018-07-27T13:41:38.079Z,3.43
2018-07-27T13:45:41.588Z,3.33
2018-07-27T13:49:45.248Z,4.60
2018-07-27T13:53:49.597Z,3.40
2018-07-27T13:57:53.168Z,3.47
2018-07-27T14:01:56.934Z,3.40
2018-07-27T14:06:00.860Z,3.20
2018-07-27T14:10:04.478Z,3.17
2018-07-27T14:14:08.021Z,3.00
2018-07-27T14:18:11.752Z,3.33
2018-07-27T14:22:15.519Z,3.90
2018-07-27T14:26:19.039Z,3.27
2018-07-27T14:30:22.660Z,3.70
2018-07-27T14:34:26.312Z,3.90
2018-07-27T14:38:30.019Z,3.60
2018-07-27T14:42:33.623Z,3.63
2018-07-27T14:46:37.659Z,3.40
2018-07-27T14:50:41.496Z,3.10
2018-07-27T14:54:45.175Z,2.70
2018-07-27T14:58:48.750Z,3.70
2018-07-27T15:02:52.261Z,4.13
2018-07-27T15:06:55.808Z,3.10
2018-07-27T15:11:06.223Z,3.00
2018-07-27T15:15:09.738Z,3.67
2018-07-27T15:19:13.585Z,3.30
2018-07-27T15:23:17.220Z,3.80
2018-07-27T15:27:20.977Z,2.93
2018-07-27T15:31:24.644Z,3.50
2018-07-27T15:35:28.271Z,3.67
2018-07-27T15:39:31.823Z,3.17
2018-07-27T15:43:36.040Z,2.70
2018-07-27T15:47:39.760Z,3.20
2018-07-27T15:51:44.224Z,3.50
2018-07-27T15:55:48.073Z,3.60
2018-07-27T15:59:51.971Z,3.60
2018-07-27T16:03:55.619Z,3.30
2018-07-27T16:07:59.380Z,3.27
2018-07-27T16:12:02.896Z,3.27
2018-07-27T16:16:06.471Z,3.23
2018-07-27T16:20:09.981Z,3.40
2018-07-27T16:24:13.607Z,3.20
2018-07-27T16:28:17.099Z,2.93
2018-07-27T16:32:20.887Z,3.10
2018-07-27T16:36:24.524Z,2.97
2018-07-27T16:40:28.087Z,3.10
2018-07-27T16:44:31.937Z,2.30
2018-07-27T16:48:35.935Z,2.60
2018-07-27T16:52:39.801Z,2.63
2018-07-27T16:56:43.660Z,2.80
2018-07-27T17:00:47.174Z,2.70
2018-07-27T17:04:50.948Z,2.80
2018-07-27T17:08:54.635Z,2.30
2018-07-27T17:12:58.291Z,2.60
2018-07-27T17:17:01.824Z,2.80
2018-07-27T17:21:05.395Z,3.13
2018-07-27T17:25:08.950Z,2.70
2018-07-27T17:29:12.487Z,2.77
2018-07-27T17:33:18.132Z,2.60
2018-07-27T17:37:21.847Z,2.93
2018-07-27T17:41:25.347Z,3.40
2018-07-27T17:45:29.339Z,3.57
2018-07-27T17:49:33.207Z,2.90
2018-07-27T17:53:36.914Z,2.90
2018-07-27T17:57:40.431Z,1.93
2018-07-27T18:01:44.155Z,3.70
2018-07-27T18:05:47.851Z,2.53
2018-07-27T18:09:52.055Z,2.77
2018-07-27T18:13:55.909Z,3.47
2018-07-27T18:17:59.832Z,2.37
2018-07-27T18:22:03.486Z,3.00
2018-07-27T18:26:08.071Z,2.50
2018-07-27T18:30:11.988Z,2.80
2018-07-27T18:34:15.503Z,2.13
2018-07-27T18:38:19.023Z,2.83
2018-07-27T18:42:22.948Z,2.80
2018-07-27T18:46:27.033Z,2.20
2018-07-27T18:50:31.019Z,2.90
2018-07-27T18:54:34.643Z,2.70
2018-07-27T18:58:38.600Z,2.80
2018-07-27T19:02:42.250Z,2.97
2018-07-27T19:06:46.011Z,3.10
2018-07-27T19:10:49.627Z,2.60
2018-07-27T19:14:53.168Z,2.90
2018-07-27T19:18:56.688Z,3.27
2018-07-27T19:23:00.212Z,2.83
2018-07-27T19:27:03.727Z,2.73
2018-07-27T19:31:07.541Z,2.77
2018-07-27T19:35:11.280Z,2.97
2018-07-27T19:39:14.967Z,3.30
2018-07-27T19:43:18.530Z,3.10
2018-07-27T19:47:22.684Z,2.43
2018-07-27T19:51:26.528Z,2.40
2018-07-27T19:55:30.235Z,2.87
2018-07-27T19:59:33.768Z,2.70
2018-07-27T20:03:37.607Z,2.63
2018-07-27T20:07:41.326Z,3.20
2018-07-27T20:11:44.985Z,3.07
2018-07-27T20:15:48.451Z,3.07
2018-07-27T20:19:52.707Z,2.93
2018-07-27T20:23:56.215Z,3.10
2018-07-27T20:27:59.975Z,3.17
2018-07-27T20:32:03.847Z,3.67
2018-07-27T20:36:07.515Z,2.53
2018-07-27T20:40:11.015Z,2.83
2018-07-27T20:44:14.639Z,2.57
2018-07-27T20:48:18.556Z,3.20
2018-07-27T20:52:22.227Z,3.37
2018-07-27T20:56:25.795Z,3.63
2018-07-27T21:00:29.551Z,3.30
2018-07-27T21:04:33.427Z,3.60
2018-07-27T21:08:37.300Z,3.07
2018-07-27T21:12:42.050Z,3.53
2018-07-27T21:16:45.920Z,3.77
2018-07-27T21:20:49.423Z,3.17
2018-07-27T21:24:52.963Z,3.77
2018-07-27T21:28:56.459Z,3.87
2018-07-27T21:33:00.091Z,4.00
2018-07-27T21:37:03.635Z,4.30
2018-07-27T21:41:07.159Z,4.40
2018-07-27T21:45:10.667Z,4.30
2018-07-27T21:49:14.283Z,4.57
2018-07-27T21:53:17.989Z,5.40
2018-07-27T21:57:21.856Z,4.80
2018-07-27T22:01:25.797Z,4.40
2018-07-27T22:05:29.315Z,4.80
2018-07-27T22:09:33.164Z,4.97
2018-07-27T22:13:37.005Z,6.00
2018-07-27T22:17:40.883Z,5.17
2018-07-27T22:21:44.610Z,4.57
2018-07-27T22:25:48.288Z,6.00
2018-07-27T22:29:51.783Z,5.33
2018-07-27T22:33:55.322Z,5.53
2018-07-27T22:37:58.850Z,5.57
2018-07-27T22:42:02.399Z,4.60
2018-07-27T22:46:06.075Z,5.50
2018-07-27T22:50:09.619Z,6.10
2018-07-27T22:54:13.163Z,5.50
2018-07-27T22:58:16.781Z,5.53
2018-07-27T23:02:21.225Z,5.07
2018-07-27T23:06:24.760Z,5.80
2018-07-27T23:10:28.259Z,5.93
2018-07-27T23:14:31.827Z,5.97
2018-07-27T23:18:35.439Z,5.50
2018-07-27T23:22:39.251Z,6.17
2018-07-27T23:26:42.881Z,5.57
2018-07-27T23:30:46.457Z,5.80
2018-07-27T23:34:50.008Z,7.07
2018-07-27T23:38:53.622Z,5.83
2018-07-27T23:42:57.135Z,7.30
2018-07-27T23:47:00.676Z,7.20
2018-07-27T23:51:04.195Z,7.23
2018-07-27T23:55:07.764Z,6.97
2018-07-27T23:59:11.501Z,6.80
